createdAt,value
2022-09-12T00:02:56.195Z,30
2022-09-12T00:05:48.560Z,32
2022-09-12T00:07:48.582Z,29
2022-09-12T00:09:48.582Z,32
2022-09-12T00:11:48.578Z,32
2022-09-12T00:13:48.591Z,31
2022-09-12T00:15:48.569Z,30
2022-09-12T00:18:48.609Z,28
2022-09-12T00:20:48.585Z,30
2022-09-12T00:22:48.622Z,32
2022-09-12T00:25:48.592Z,29
2022-09-12T00:28:48.588Z,33
2022-09-12T00:30:48.603Z,26
2022-09-12T00:33:48.594Z,31
2022-09-12T00:36:48.603Z,30
2022-09-12T00:38:48.648Z,29
2022-09-12T00:41:48.570Z,33
2022-09-12T00:43:48.601Z,31
2022-09-12T00:46:48.587Z,34
2022-09-12T00:49:48.573Z,32
2022-09-12T00:52:48.604Z,30
2022-09-12T00:54:48.627Z,31
2022-09-12T00:57:48.623Z,31
2022-09-12T00:59:48.598Z,28
2022-09-12T01:02:48.610Z,30
2022-09-12T01:05:48.592Z,32
2022-09-12T01:08:48.597Z,29
2022-09-12T01:11:48.597Z,31
2022-09-12T01:14:48.604Z,29
2022-09-12T01:16:49.030Z,29
2022-09-12T01:19:48.607Z,31
2022-09-12T01:21:48.601Z,31
2022-09-12T01:23:48.603Z,29
2022-09-12T01:26:48.599Z,32
2022-09-12T01:28:49.630Z,28
2022-09-12T01:31:48.626Z,28
2022-09-12T01:33:48.600Z,32
2022-09-12T01:36:48.608Z,30
2022-09-12T01:38:48.587Z,32
2022-09-12T01:41:48.610Z,30
2022-09-12T01:44:48.610Z,30
2022-09-12T01:47:48.623Z,34
2022-09-12T01:50:48.618Z,31
2022-09-12T01:53:48.620Z,29
2022-09-12T01:55:48.617Z,29
2022-09-12T01:58:48.611Z,32
2022-09-12T02:00:48.684Z,27
2022-09-12T02:02:48.652Z,31
2022-09-12T02:05:48.640Z,31
2022-09-12T02:08:48.612Z,30
2022-09-12T02:10:48.628Z,29
2022-09-12T02:12:48.632Z,33
2022-09-12T02:14:48.631Z,28
2022-09-12T02:16:49.095Z,31
2022-09-12T02:19:48.610Z,29
2022-09-12T02:21:48.634Z,28
2022-09-12T02:23:48.626Z,33
2022-09-12T02:25:48.621Z,30
2022-09-12T02:28:48.599Z,29
2022-09-12T02:30:48.680Z,31
2022-09-12T02:32:48.662Z,33
2022-09-12T02:35:48.612Z,31
2022-09-12T02:37:48.637Z,34
2022-09-12T02:40:48.623Z,29
2022-09-12T02:42:48.639Z,29
2022-09-12T02:45:48.657Z,28
2022-09-12T02:48:48.608Z,29
2022-09-12T02:50:48.624Z,29
2022-09-12T02:53:48.610Z,29
2022-09-12T02:55:48.612Z,35
2022-09-12T02:58:48.647Z,28
2022-09-12T03:00:48.608Z,29
2022-09-12T03:02:48.651Z,30
2022-09-12T03:05:48.603Z,29
2022-09-12T03:07:48.660Z,29
2022-09-12T03:10:48.621Z,32
2022-09-12T03:12:48.617Z,35
2022-09-12T03:14:48.604Z,30
2022-09-12T03:17:48.632Z,27
2022-09-12T03:19:48.620Z,29
2022-09-12T03:22:51.083Z,26
2022-09-12T03:24:48.627Z,30
2022-09-12T03:26:48.638Z,27
2022-09-12T03:29:48.606Z,29
2022-09-12T03:31:48.621Z,29
2022-09-12T03:34:48.633Z,29
2022-09-12T03:37:48.659Z,25
2022-09-12T03:40:55.795Z,29
2022-09-12T03:42:48.650Z,26
2022-09-12T03:45:48.655Z,25
2022-09-12T03:48:48.643Z,29
2022-09-12T03:51:48.613Z,27
2022-09-12T03:54:48.636Z,29
2022-09-12T03:57:48.613Z,28
2022-09-12T04:03:48.899Z,28
2022-09-12T04:06:48.683Z,29
2022-09-12T04:09:48.668Z,29
2022-09-12T04:12:48.660Z,27
2022-09-12T04:15:48.639Z,29
2022-09-12T04:17:48.643Z,27
2022-09-12T04:20:48.656Z,31
2022-09-12T04:23:48.671Z,25
2022-09-12T04:25:48.724Z,29
2022-09-12T04:28:48.683Z,28
2022-09-12T04:31:48.673Z,27
2022-09-12T04:34:48.653Z,29
2022-09-12T04:36:48.655Z,30
2022-09-12T04:38:48.686Z,27
2022-09-12T04:41:48.643Z,29
2022-09-12T04:43:48.662Z,26
2022-09-12T04:46:48.636Z,27
2022-09-12T04:48:50.499Z,26
2022-09-12T04:51:48.623Z,29
2022-09-12T04:53:48.789Z,28
2022-09-12T04:56:48.660Z,26
2022-09-12T04:58:48.674Z,29
2022-09-12T05:01:48.785Z,30
2022-09-12T05:03:48.689Z,30
2022-09-12T05:06:48.678Z,29
2022-09-12T05:09:48.661Z,27
2022-09-12T05:12:48.651Z,25
2022-09-12T05:14:48.667Z,26
2022-09-12T05:16:49.504Z,31
2022-09-12T05:18:48.654Z,27
2022-09-12T05:21:48.673Z,29
2022-09-12T05:23:48.665Z,27
2022-09-12T05:26:48.663Z,28
2022-09-12T05:29:48.633Z,27
2022-09-12T05:31:48.856Z,27
2022-09-12T05:34:48.651Z,27
2022-09-12T05:37:48.642Z,29
2022-09-12T05:40:48.613Z,30
2022-09-12T05:42:48.652Z,30
2022-09-12T05:45:48.738Z,31
2022-09-12T05:48:50.525Z,31
2022-09-12T05:51:48.653Z,32
2022-09-12T05:53:48.683Z,27
2022-09-12T05:56:48.677Z,32
2022-09-12T05:58:48.676Z,28
2022-09-12T06:01:48.933Z,33
2022-09-12T06:03:48.664Z,33
2022-09-12T06:06:48.750Z,35
2022-09-12T06:09:48.645Z,31
2022-09-12T06:12:48.679Z,30
2022-09-12T06:14:48.670Z,31
2022-09-12T06:16:48.844Z,27
2022-09-12T06:19:48.669Z,25
2022-09-12T06:22:48.683Z,30
2022-09-12T06:25:48.709Z,27
2022-09-12T06:28:48.662Z,30
2022-09-12T06:30:48.730Z,31
2022-09-12T06:33:48.700Z,34
2022-09-12T06:36:48.690Z,40
2022-09-12T06:39:48.730Z,36
2022-09-12T06:41:48.684Z,39
2022-09-12T06:44:48.686Z,39
2022-09-12T06:47:48.691Z,37
2022-09-12T06:49:48.689Z,41
2022-09-12T06:52:48.665Z,54
2022-09-12T06:54:48.735Z,36
2022-09-12T06:57:48.657Z,36
2022-09-12T06:59:48.668Z,44
2022-09-12T07:02:48.975Z,42
2022-09-12T07:05:48.678Z,42
2022-09-12T07:08:48.679Z,43
2022-09-12T07:10:48.695Z,39
2022-09-12T07:13:48.650Z,45
2022-09-12T07:15:48.719Z,49
2022-09-12T07:18:48.686Z,39
2022-09-12T07:21:48.664Z,41
2022-09-12T07:23:48.800Z,45
2022-09-12T07:26:48.682Z,51
2022-09-12T07:29:48.665Z,50
2022-09-12T07:31:48.710Z,45
2022-09-12T07:33:52.410Z,53
2022-09-12T07:36:48.688Z,54
2022-09-12T07:39:48.705Z,67
2022-09-12T07:41:48.726Z,69
2022-09-12T07:44:48.723Z,68
2022-09-12T07:47:48.686Z,76
2022-09-12T07:49:48.670Z,75
2022-09-12T07:52:48.683Z,83
2022-09-12T07:54:48.712Z,82
2022-09-12T07:57:48.668Z,77
2022-09-12T07:59:52.741Z,91
2022-09-12T08:02:49.181Z,87
2022-09-12T08:05:48.680Z,85
2022-09-12T08:08:48.670Z,48
2022-09-12T08:10:48.677Z,96
2022-09-12T08:13:51.742Z,85
2022-09-12T08:16:48.683Z,89
2022-09-12T08:18:48.870Z,97
2022-09-12T08:21:48.700Z,89
2022-09-12T08:24:48.700Z,73
2022-09-12T08:26:48.729Z,99
2022-09-12T08:28:48.759Z,93
2022-09-12T08:31:48.671Z,89
2022-09-12T08:33:48.726Z,99
2022-09-12T08:36:48.694Z,91
2022-09-12T08:38:48.702Z,89
2022-09-12T08:41:48.693Z,92
2022-09-12T08:43:50.963Z,100
2022-09-12T08:45:48.701Z,95
2022-09-12T08:48:48.735Z,89
2022-09-12T08:50:49.772Z,88
2022-09-12T08:53:48.750Z,84
2022-09-12T08:56:48.708Z,71
2022-09-12T08:58:48.725Z,85
2022-09-12T09:00:48.706Z,99
2022-09-12T09:02:48.799Z,90
2022-09-12T09:05:48.707Z,82
2022-09-12T09:07:48.701Z,86
2022-09-12T09:09:48.730Z,81
2022-09-12T09:12:48.698Z,88
2022-09-12T09:14:48.722Z,92
2022-09-12T09:17:48.695Z,77
2022-09-12T09:19:50.771Z,69
2022-09-12T09:22:48.704Z,79
2022-09-12T09:25:48.744Z,71
2022-09-12T09:28:48.694Z,76
2022-09-12T09:30:48.753Z,70
2022-09-12T09:33:48.738Z,30
2022-09-12T09:36:48.694Z,93
2022-09-12T09:38:48.744Z,25
2022-09-12T09:41:48.680Z,52
2022-09-12T09:43:48.697Z,53
2022-09-12T09:45:48.839Z,83
2022-09-12T09:47:48.720Z,84
2022-09-12T09:50:48.734Z,88
2022-09-12T09:53:48.717Z,83
2022-09-12T09:55:48.726Z,89
2022-09-12T09:57:48.730Z,94
2022-09-12T10:00:48.748Z,86
2022-09-12T10:03:48.720Z,77
2022-09-12T10:06:48.728Z,87
2022-09-12T10:09:48.688Z,62
2022-09-12T10:12:48.740Z,83
2022-09-12T10:15:48.765Z,61
2022-09-12T10:17:48.727Z,83
2022-09-12T10:20:48.757Z,73
2022-09-12T10:23:48.748Z,66
2022-09-12T10:25:48.743Z,76
2022-09-12T10:28:48.731Z,47
2022-09-12T10:31:48.738Z,74
2022-09-12T10:34:48.724Z,79
2022-09-12T10:36:48.717Z,48
2022-09-12T10:39:48.806Z,80
2022-09-12T10:42:48.732Z,79
2022-09-12T10:45:48.802Z,63
2022-09-12T10:47:48.813Z,80
2022-09-12T10:50:48.735Z,70
2022-09-12T10:52:48.761Z,75
2022-09-12T10:55:48.721Z,55
2022-09-12T10:58:48.698Z,65
2022-09-12T11:00:48.735Z,74
2022-09-12T11:03:48.766Z,48
2022-09-12T11:06:48.732Z,53
2022-09-12T11:09:48.728Z,51
2022-09-12T11:12:48.704Z,51
2022-09-12T11:14:48.759Z,28
2022-09-12T11:17:48.736Z,42
2022-09-12T11:20:48.774Z,35
2022-09-12T11:23:48.723Z,31
2022-09-12T11:25:48.734Z,29
2022-09-12T11:27:48.756Z,30
2022-09-12T11:30:48.814Z,27
2022-09-12T11:32:48.739Z,26
2022-09-12T11:35:51.831Z,19
2022-09-12T11:37:49.061Z,26
2022-09-12T11:40:48.760Z,27
2022-09-12T11:44:48.739Z,23
2022-09-12T11:48:48.747Z,19
2022-09-12T11:51:48.752Z,16
2022-09-12T11:53:48.738Z,13
2022-09-12T11:56:48.698Z,15
2022-09-12T11:58:48.726Z,14
2022-09-12T12:00:48.733Z,15
2022-09-12T12:03:48.809Z,16
2022-09-12T12:05:48.756Z,15
2022-09-12T12:08:48.918Z,16
2022-09-12T12:11:48.726Z,13
2022-09-12T12:13:48.748Z,14
2022-09-12T12:16:48.720Z,15
2022-09-12T12:19:48.716Z,15
2022-09-12T12:21:48.736Z,13
2022-09-12T12:24:48.748Z,11
2022-09-12T12:27:48.735Z,13
2022-09-12T12:29:48.727Z,15
2022-09-12T12:32:48.755Z,15
2022-09-12T12:34:48.749Z,12
2022-09-12T12:36:48.766Z,13
2022-09-12T12:39:48.792Z,7
2022-09-12T12:41:48.747Z,7
2022-09-12T12:44:48.750Z,11
2022-09-12T12:46:48.751Z,10
2022-09-12T12:48:48.737Z,9
2022-09-12T12:51:48.747Z,9
2022-09-12T12:54:48.760Z,10
2022-09-12T12:56:48.813Z,11
2022-09-12T12:59:48.748Z,11
2022-09-12T13:02:48.772Z,11
2022-09-12T13:05:48.795Z,12
2022-09-12T13:07:48.787Z,13
2022-09-12T13:09:48.822Z,9
2022-09-12T13:12:48.746Z,13
2022-09-12T13:15:48.862Z,12
2022-09-12T13:17:48.821Z,10
2022-09-12T13:20:48.756Z,9
2022-09-12T13:23:48.784Z,11
2022-09-12T13:26:48.780Z,10
2022-09-12T13:29:48.780Z,12
2022-09-12T13:31:48.998Z,12
2022-09-12T13:34:48.730Z,10
2022-09-12T13:36:48.793Z,10
2022-09-12T13:38:48.778Z,11
2022-09-12T13:40:48.817Z,10
2022-09-12T13:43:48.771Z,11
2022-09-12T13:49:48.806Z,9
2022-09-12T13:52:48.793Z,10
2022-09-12T13:55:48.799Z,10
2022-09-12T13:58:48.768Z,9
2022-09-12T14:03:49.045Z,8
2022-09-12T14:05:49.242Z,9
2022-09-12T14:08:48.836Z,10
2022-09-12T14:11:48.828Z,8
2022-09-12T14:14:48.801Z,13
2022-09-12T14:16:48.854Z,9
2022-09-12T14:18:48.906Z,9
2022-09-12T14:21:48.790Z,10
2022-09-12T14:24:49.076Z,8
2022-09-12T14:30:48.833Z,10
2022-09-12T14:32:48.820Z,9
2022-09-12T14:35:48.787Z,8
2022-09-12T14:37:48.821Z,10
2022-09-12T14:39:48.844Z,10
2022-09-12T14:42:48.787Z,10
2022-09-12T14:44:48.770Z,10
2022-09-12T14:47:48.782Z,10
2022-09-12T14:50:48.785Z,8
2022-09-12T14:52:48.795Z,8
2022-09-12T14:54:48.806Z,11
2022-09-12T14:57:48.798Z,8
2022-09-12T14:59:48.816Z,7
2022-09-12T15:01:48.867Z,8
2022-09-12T15:04:48.790Z,8
2022-09-12T15:06:48.806Z,7
2022-09-12T15:08:48.883Z,9
2022-09-12T15:11:48.819Z,9
2022-09-12T15:14:48.802Z,8
2022-09-12T15:17:49.806Z,9
2022-09-12T15:20:48.803Z,8
2022-09-12T15:22:48.827Z,7
2022-09-12T15:25:48.807Z,8
2022-09-12T15:27:48.815Z,7
2022-09-12T15:30:48.842Z,7
2022-09-12T15:32:48.828Z,8
2022-09-12T15:34:49.361Z,6
2022-09-12T15:37:48.802Z,7
2022-09-12T15:39:48.851Z,7
2022-09-12T15:42:48.861Z,8
2022-09-12T15:45:48.853Z,6
2022-09-12T15:47:48.864Z,6
2022-09-12T15:50:48.869Z,6
2022-09-12T15:53:49.117Z,6
2022-09-12T15:57:48.851Z,6
2022-09-12T16:00:48.835Z,8
2022-09-12T16:02:48.851Z,6
2022-09-12T16:04:48.830Z,9
2022-09-12T16:06:51.954Z,8
2022-09-12T16:09:48.827Z,5
2022-09-12T16:11:48.819Z,8
2022-09-12T16:13:48.874Z,8
2022-09-12T16:17:04.197Z,6
2022-09-12T16:18:48.930Z,6
2022-09-12T16:21:48.856Z,5
2022-09-12T16:23:48.862Z,7
2022-09-12T16:26:48.810Z,7
2022-09-12T16:28:48.964Z,9
2022-09-12T16:30:48.864Z,8
2022-09-12T16:33:48.873Z,8
2022-09-12T16:36:48.850Z,8
2022-09-12T16:39:48.950Z,7
2022-09-12T16:42:48.853Z,12
2022-09-12T16:44:48.867Z,7
2022-09-12T16:46:48.902Z,7
2022-09-12T16:48:51.965Z,9
2022-09-12T16:51:48.849Z,9
2022-09-12T16:53:48.863Z,10
2022-09-12T16:56:48.879Z,10
2022-09-12T16:59:48.918Z,58
2022-09-12T17:02:48.906Z,31
2022-09-12T17:04:48.886Z,18
2022-09-12T17:06:48.888Z,13
2022-09-12T17:09:48.860Z,10
2022-09-12T17:11:48.906Z,10
2022-09-12T17:14:48.853Z,12
2022-09-12T17:16:51.823Z,12
2022-09-12T17:18:48.925Z,11
2022-09-12T17:21:48.874Z,10
2022-09-12T17:24:48.940Z,10
2022-09-12T17:27:48.874Z,11
2022-09-12T17:29:48.921Z,12
2022-09-12T17:31:48.890Z,10
2022-09-12T17:33:49.138Z,15
2022-09-12T17:36:48.901Z,11
2022-09-12T17:39:48.900Z,13
2022-09-12T17:41:49.028Z,11
2022-09-12T17:43:49.170Z,12
2022-09-12T17:45:49.136Z,13
2022-09-12T17:48:48.928Z,13
2022-09-12T17:50:49.002Z,15
2022-09-12T17:53:49.809Z,14
2022-09-12T17:56:49.878Z,15
2022-09-12T17:59:49.321Z,13
2022-09-12T18:02:49.904Z,13
2022-09-12T18:05:48.860Z,14
2022-09-12T18:07:48.878Z,12
2022-09-12T18:10:48.970Z,13
2022-09-12T18:13:49.124Z,13
2022-09-12T18:15:48.924Z,13
2022-09-12T18:17:48.910Z,11
2022-09-12T18:19:52.917Z,13
2022-09-12T18:22:48.912Z,13
2022-09-12T18:24:48.954Z,10
2022-09-12T18:27:48.902Z,13
2022-09-12T18:30:48.933Z,14
2022-09-12T18:32:48.913Z,14
2022-09-12T18:35:48.919Z,14
2022-09-12T18:38:48.941Z,15
2022-09-12T18:40:49.224Z,11
2022-09-12T18:43:49.149Z,13
2022-09-12T18:46:48.960Z,11
2022-09-12T18:48:48.925Z,12
2022-09-12T18:51:48.923Z,12
2022-09-12T18:53:49.062Z,13
2022-09-12T18:56:48.894Z,13
2022-09-12T18:58:50.479Z,15
2022-09-12T19:01:48.933Z,13
2022-09-12T19:04:48.869Z,15
2022-09-12T19:06:48.898Z,13
2022-09-12T19:08:48.921Z,13
2022-09-12T19:10:48.929Z,14
2022-09-12T19:12:48.924Z,13
2022-09-12T19:15:48.910Z,17
2022-09-12T19:17:48.916Z,16
2022-09-12T19:20:49.194Z,11
2022-09-12T19:23:48.986Z,15
2022-09-12T19:25:48.893Z,16
2022-09-12T19:28:48.904Z,13
2022-09-12T19:30:48.934Z,14
2022-09-12T19:32:48.910Z,14
2022-09-12T19:35:48.877Z,17
2022-09-12T19:37:48.909Z,16
2022-09-12T19:40:48.913Z,14
2022-09-12T19:43:48.931Z,15
2022-09-12T19:46:48.992Z,15
2022-09-12T19:49:48.909Z,12
2022-09-12T19:52:48.918Z,12
2022-09-12T19:55:48.877Z,15
2022-09-12T19:58:53.719Z,17
2022-09-12T20:01:48.981Z,16
2022-09-12T20:03:48.945Z,16
2022-09-12T20:06:48.881Z,18
2022-09-12T20:08:49.074Z,19
2022-09-12T20:11:48.922Z,20
2022-09-12T20:13:48.925Z,17
2022-09-12T20:15:48.968Z,16
2022-09-12T20:18:49.039Z,15
2022-09-12T20:21:48.898Z,14
2022-09-12T20:23:48.940Z,18
2022-09-12T20:26:48.932Z,18
2022-09-12T20:29:48.933Z,16
2022-09-12T20:31:48.903Z,17
2022-09-12T20:34:48.929Z,17
2022-09-12T20:36:49.067Z,16
2022-09-12T20:39:50.803Z,17
2022-09-12T20:41:48.943Z,19
2022-09-12T20:43:49.025Z,16
2022-09-12T20:46:49.018Z,18
2022-09-12T20:49:48.921Z,19
2022-09-12T20:51:48.939Z,17
2022-09-12T20:53:49.053Z,18
2022-09-12T20:56:48.952Z,17
2022-09-12T20:59:48.989Z,16
2022-09-12T21:02:49.017Z,15
2022-09-12T21:05:48.986Z,18
2022-09-12T21:08:49.090Z,16
2022-09-12T21:11:48.979Z,17
2022-09-12T21:14:49.016Z,18
2022-09-12T21:17:48.923Z,17
2022-09-12T21:20:49.007Z,18
2022-09-12T21:23:49.215Z,19
2022-09-12T21:26:48.937Z,19
2022-09-12T21:29:48.935Z,21
2022-09-12T21:31:49.085Z,22
2022-09-12T21:34:48.988Z,20
2022-09-12T21:36:49.022Z,19
2022-09-12T21:39:49.009Z,18
2022-09-12T21:41:48.975Z,19
2022-09-12T21:44:48.970Z,18
2022-09-12T21:46:49.014Z,19
2022-09-12T21:49:48.946Z,20
2022-09-12T21:51:48.953Z,18
2022-09-12T21:55:49.294Z,20
2022-09-12T21:58:49.011Z,22
2022-09-12T22:01:49.013Z,18
2022-09-12T22:04:48.923Z,20
2022-09-12T22:07:48.971Z,16
2022-09-12T22:10:48.965Z,19
2022-09-12T22:13:49.127Z,18
2022-09-12T22:16:48.936Z,17
2022-09-12T22:18:48.998Z,24
2022-09-12T22:21:48.936Z,23
2022-09-12T22:23:48.986Z,19
2022-09-12T22:25:48.975Z,20
2022-09-12T22:28:49.054Z,20
2022-09-12T22:32:49.136Z,20
2022-09-12T22:35:48.990Z,19
2022-09-12T22:37:49.014Z,21
2022-09-12T22:40:48.968Z,19
2022-09-12T22:42:48.968Z,22
2022-09-12T22:45:49.017Z,19
2022-09-12T22:48:48.938Z,19
2022-09-12T22:50:48.979Z,22
2022-09-12T22:52:48.979Z,20
2022-09-12T22:54:49.017Z,19
2022-09-12T22:57:48.973Z,19
2022-09-12T23:00:49.138Z,23
2022-09-12T23:03:49.167Z,23
2022-09-12T23:05:48.985Z,19
2022-09-12T23:07:48.999Z,20
2022-09-12T23:10:48.964Z,21
2022-09-12T23:12:49.004Z,21
2022-09-12T23:15:49.042Z,21
2022-09-12T23:17:49.607Z,20
2022-09-12T23:20:48.960Z,21
2022-09-12T23:22:48.986Z,18
2022-09-12T23:25:49.007Z,21
2022-09-12T23:27:48.992Z,19
2022-09-12T23:30:49.022Z,21
2022-09-12T23:33:48.975Z,19
2022-09-12T23:36:49.285Z,21
2022-09-12T23:39:49.079Z,22
2022-09-12T23:42:49.003Z,23
2022-09-12T23:44:49.083Z,22
2022-09-12T23:47:49.027Z,22
2022-09-12T23:50:48.992Z,21
2022-09-12T23:52:49.009Z,19
2022-09-12T23:54:49.015Z,21
2022-09-12T23:56:49.015Z,19
2022-09-12T23:59:49.014Z,20
